sensor_id;sensor_type;location;lat;lon;timestamp;pressure;altitude;pressure_sealevel;temperature;humidity
63090;BME280;49174;43.198;27.824;2023-06-10T00:01:37;101011.84;;;16.11;100.00
63090;BME280;49174;43.198;27.824;2023-06-10T00:04:03;101008.06;;;16.12;100.00
63090;BME280;49174;43.198;27.824;2023-06-10T00:06:29;101005.69;;;16.15;100.00
63090;BME280;49174;43.198;27.824;2023-06-10T00:09:02;101009.25;;;16.16;100.00
63090;BME280;49174;43.198;27.824;2023-06-10T00:11:32;101010.09;;;16.16;100.00
63090;BME280;49174;43.198;27.824;2023-06-10T00:13:58;101009.25;;;16.16;100.00
63090;BME280;49174;43.198;27.824;2023-06-10T00:16:24;101005.63;;;16.22;100.00
63090;BME280;49174;43.198;27.824;2023-06-10T00:18:50;101011.66;;;16.24;100.00
63090;BME280;49174;43.198;27.824;2023-06-10T00:21:17;101004.09;;;16.26;100.00
63090;BME280;49174;43.198;27.824;2023-06-10T00:23:42;101004.56;;;16.23;100.00
63090;BME280;49174;43.198;27.824;2023-06-10T00:26:08;101003.38;;;16.19;100.00
63090;BME280;49174;43.198;27.824;2023-06-10T00:28:34;101002.75;;;16.17;100.00
63090;BME280;49174;43.198;27.824;2023-06-10T00:31:00;101004.25;;;16.13;100.00
63090;BME280;49174;43.198;27.824;2023-06-10T00:33:25;101016.31;;;16.05;100.00
63090;BME280;49174;43.198;27.824;2023-06-10T00:35:51;101006.31;;;15.99;100.00
63090;BME280;49174;43.198;27.824;2023-06-10T00:38:17;101009.09;;;15.92;100.00
63090;BME280;49174;43.198;27.824;2023-06-10T00:40:42;101010.63;;;15.88;100.00
63090;BME280;49174;43.198;27.824;2023-06-10T00:43:08;101013.19;;;15.83;100.00
63090;BME280;49174;43.198;27.824;2023-06-10T00:45:33;101021.81;;;15.80;100.00
63090;BME280;49174;43.198;27.824;2023-06-10T00:48:00;101008.41;;;15.78;100.00
63090;BME280;49174;43.198;27.824;2023-06-10T00:50:26;101008.03;;;15.75;100.00
63090;BME280;49174;43.198;27.824;2023-06-10T00:52:53;101006.13;;;15.75;100.00
63090;BME280;49174;43.198;27.824;2023-06-10T00:55:19;101007.59;;;15.78;100.00
63090;BME280;49174;43.198;27.824;2023-06-10T00:57:46;101008.41;;;15.78;100.00
63090;BME280;49174;43.198;27.824;2023-06-10T01:00:14;101014.69;;;15.79;100.00
63090;BME280;49174;43.198;27.824;2023-06-10T01:02:42;101013.03;;;15.78;100.00
63090;BME280;49174;43.198;27.824;2023-06-10T01:05:08;101009.69;;;15.76;100.00
63090;BME280;49174;43.198;27.824;2023-06-10T01:07:38;101006.34;;;15.74;100.00
63090;BME280;49174;43.198;27.824;2023-06-10T01:12:52;101001.59;;;15.69;100.00
63090;BME280;49174;43.198;27.824;2023-06-10T01:15:19;101011.00;;;15.67;100.00
63090;BME280;49174;43.198;27.824;2023-06-10T01:20:24;100997.97;;;15.75;100.00
63090;BME280;49174;43.198;27.824;2023-06-10T01:22:55;100999.25;;;15.73;100.00
63090;BME280;49174;43.198;27.824;2023-06-10T01:25:23;100995.25;;;15.75;100.00
63090;BME280;49174;43.198;27.824;2023-06-10T01:27:54;100992.53;;;15.75;100.00
63090;BME280;49174;43.198;27.824;2023-06-10T01:30:23;100995.72;;;15.72;100.00
63090;BME280;49174;43.198;27.824;2023-06-10T01:32:55;100999.72;;;15.70;100.00
63090;BME280;49174;43.198;27.824;2023-06-10T01:35:25;100999.72;;;15.70;100.00
63090;BME280;49174;43.198;27.824;2023-06-10T01:37:53;100999.31;;;15.66;99.55
63090;BME280;49174;43.198;27.824;2023-06-10T01:40:20;101000.41;;;15.58;99.72
63090;BME280;49174;43.198;27.824;2023-06-10T01:42:46;101005.06;;;15.51;100.00
63090;BME280;49174;43.198;27.824;2023-06-10T01:45:11;100999.88;;;15.50;100.00
63090;BME280;49174;43.198;27.824;2023-06-10T01:47:37;100995.72;;;15.47;100.00
63090;BME280;49174;43.198;27.824;2023-06-10T01:50:03;100987.75;;;15.46;100.00
63090;BME280;49174;43.198;27.824;2023-06-10T01:52:28;100989.03;;;15.43;100.00
63090;BME280;49174;43.198;27.824;2023-06-10T01:54:54;100992.44;;;15.38;100.00
63090;BME280;49174;43.198;27.824;2023-06-10T01:57:19;100995.44;;;15.30;100.00
63090;BME280;49174;43.198;27.824;2023-06-10T01:59:45;100996.91;;;15.26;100.00
63090;BME280;49174;43.198;27.824;2023-06-10T02:02:11;101000.50;;;15.27;100.00
63090;BME280;49174;43.198;27.824;2023-06-10T02:04:37;100999.88;;;15.25;100.00
63090;BME280;49174;43.198;27.824;2023-06-10T02:07:02;100992.38;;;15.20;100.00
63090;BME280;49174;43.198;27.824;2023-06-10T02:09:31;100987.56;;;15.22;100.00
63090;BME280;49174;43.198;27.824;2023-06-10T02:12:00;100994.44;;;15.25;100.00
63090;BME280;49174;43.198;27.824;2023-06-10T02:14:25;100991.09;;;15.23;100.00
63090;BME280;49174;43.198;27.824;2023-06-10T02:16:51;100990.47;;;15.20;100.00
63090;BME280;49174;43.198;27.824;2023-06-10T02:19:16;100993.88;;;15.16;100.00
63090;BME280;49174;43.198;27.824;2023-06-10T02:21:42;100985.72;;;15.16;100.00
63090;BME280;49174;43.198;27.824;2023-06-10T02:24:08;100991.81;;;15.11;100.00
63090;BME280;49174;43.198;27.824;2023-06-10T02:26:33;100988.72;;;15.08;100.00
63090;BME280;49174;43.198;27.824;2023-06-10T02:28:59;100991.03;;;15.04;100.00
63090;BME280;49174;43.198;27.824;2023-06-10T02:31:24;100996.47;;;15.04;100.00
63090;BME280;49174;43.198;27.824;2023-06-10T02:33:50;100991.47;;;15.01;100.00
63090;BME280;49174;43.198;27.824;2023-06-10T02:36:16;100995.06;;;14.95;100.00
63090;BME280;49174;43.198;27.824;2023-06-10T02:38:42;100991.13;;;14.91;100.00
63090;BME280;49174;43.198;27.824;2023-06-10T02:41:07;100994.31;;;14.88;100.00
63090;BME280;49174;43.198;27.824;2023-06-10T02:43:33;100988.88;;;14.88;100.00
63090;BME280;49174;43.198;27.824;2023-06-10T02:45:59;100991.13;;;14.91;100.00
63090;BME280;49174;43.198;27.824;2023-06-10T02:48:24;100997.84;;;14.88;100.00
63090;BME280;49174;43.198;27.824;2023-06-10T02:50:50;100999.09;;;14.86;100.00
63090;BME280;49174;43.198;27.824;2023-06-10T02:53:16;101002.03;;;14.84;100.00
63090;BME280;49174;43.198;27.824;2023-06-10T02:55:41;101003.09;;;14.83;100.00
63090;BME280;49174;43.198;27.824;2023-06-10T02:58:08;101010.81;;;14.86;100.00
63090;BME280;49174;43.198;27.824;2023-06-10T03:00:33;101011.00;;;14.85;100.00
63090;BME280;49174;43.198;27.824;2023-06-10T03:02:59;101010.19;;;14.84;100.00
63090;BME280;49174;43.198;27.824;2023-06-10T03:05:28;101011.00;;;14.85;100.00
63090;BME280;49174;43.198;27.824;2023-06-10T03:07:54;101007.88;;;14.88;100.00
63090;BME280;49174;43.198;27.824;2023-06-10T03:10:20;101004.50;;;14.92;100.00
63090;BME280;49174;43.198;27.824;2023-06-10T03:12:45;100999.88;;;14.93;100.00
63090;BME280;49174;43.198;27.824;2023-06-10T03:15:11;101003.22;;;14.95;100.00
63090;BME280;49174;43.198;27.824;2023-06-10T03:17:36;101003.59;;;14.98;100.00
63090;BME280;49174;43.198;27.824;2023-06-10T03:20:02;101000.63;;;15.07;100.00
63090;BME280;49174;43.198;27.824;2023-06-10T03:22:30;101003.13;;;15.08;100.00
63090;BME280;49174;43.198;27.824;2023-06-10T03:24:56;101004.78;;;15.09;100.00
63090;BME280;49174;43.198;27.824;2023-06-10T03:27:22;100998.91;;;15.12;100.00
63090;BME280;49174;43.198;27.824;2023-06-10T03:29:48;101006.84;;;15.14;100.00
63090;BME280;49174;43.198;27.824;2023-06-10T03:32:13;101007.84;;;15.19;100.00
63090;BME280;49174;43.198;27.824;2023-06-10T03:34:40;101012.41;;;15.26;100.00
63090;BME280;49174;43.198;27.824;2023-06-10T03:37:06;101008.59;;;15.33;100.00
63090;BME280;49174;43.198;27.824;2023-06-10T03:39:32;101005.22;;;15.38;100.00
63090;BME280;49174;43.198;27.824;2023-06-10T03:41:58;100995.75;;;15.40;100.00
63090;BME280;49174;43.198;27.824;2023-06-10T03:44:26;101003.25;;;15.45;100.00
63090;BME280;49174;43.198;27.824;2023-06-10T03:46:54;100987.38;;;15.42;100.00
63090;BME280;49174;43.198;27.824;2023-06-10T03:49:20;100992.75;;;15.49;100.00
63090;BME280;49174;43.198;27.824;2023-06-10T03:51:45;100997.78;;;15.52;100.00
63090;BME280;49174;43.198;27.824;2023-06-10T03:54:11;101001.84;;;15.61;100.00
63090;BME280;49174;43.198;27.824;2023-06-10T03:56:36;100997.88;;;15.63;100.00
63090;BME280;49174;43.198;27.824;2023-06-10T03:59:02;100997.00;;;15.70;100.00
63090;BME280;49174;43.198;27.824;2023-06-10T04:01:28;100993.97;;;15.78;100.00
63090;BME280;49174;43.198;27.824;2023-06-10T04:03:53;100998.34;;;15.79;100.00
63090;BME280;49174;43.198;27.824;2023-06-10T04:06:20;100998.97;;;15.81;100.00
63090;BME280;49174;43.198;27.824;2023-06-10T04:08:47;101002.22;;;15.90;100.00
63090;BME280;49174;43.198;27.824;2023-06-10T04:11:13;100998.22;;;15.92;100.00
63090;BME280;49174;43.198;27.824;2023-06-10T04:13:39;100996.69;;;15.96;100.00
63090;BME280;49174;43.198;27.824;2023-06-10T04:16:05;100988.94;;;16.00;100.00
63090;BME280;49174;43.198;27.824;2023-06-10T04:18:30;100984.69;;;16.04;100.00
63090;BME280;49174;43.198;27.824;2023-06-10T04:20:56;100987.09;;;16.12;100.00
63090;BME280;49174;43.198;27.824;2023-06-10T04:23:22;100989.31;;;16.22;100.00
63090;BME280;49174;43.198;27.824;2023-06-10T04:25:47;100989.66;;;16.25;100.00
63090;BME280;49174;43.198;27.824;2023-06-10T04:28:13;100994.44;;;16.30;100.00
63090;BME280;49174;43.198;27.824;2023-06-10T04:30:39;100989.56;;;16.32;100.00
63090;BME280;49174;43.198;27.824;2023-06-10T04:33:04;100994.13;;;16.38;100.00
63090;BME280;49174;43.198;27.824;2023-06-10T04:35:32;100992.13;;;16.45;100.00
63090;BME280;49174;43.198;27.824;2023-06-10T04:37:58;100984.09;;;16.50;100.00
63090;BME280;49174;43.198;27.824;2023-06-10T04:40:23;100986.16;;;16.55;100.00
63090;BME280;49174;43.198;27.824;2023-06-10T04:42:49;100989.38;;;16.64;100.00
63090;BME280;49174;43.198;27.824;2023-06-10T04:45:14;100992.81;;;16.71;100.00
63090;BME280;49174;43.198;27.824;2023-06-10T04:47:40;100992.53;;;16.79;100.00
63090;BME280;49174;43.198;27.824;2023-06-10T04:50:06;100990.41;;;16.81;100.00
63090;BME280;49174;43.198;27.824;2023-06-10T04:52:31;100994.09;;;16.87;100.00
63090;BME280;49174;43.198;27.824;2023-06-10T04:54:59;100993.16;;;16.93;100.00
63090;BME280;49174;43.198;27.824;2023-06-10T04:57:25;101001.00;;;17.01;100.00
63090;BME280;49174;43.198;27.824;2023-06-10T04:59:52;101000.94;;;17.08;100.00
63090;BME280;49174;43.198;27.824;2023-06-10T05:02:17;101001.63;;;17.15;100.00
63090;BME280;49174;43.198;27.824;2023-06-10T05:04:43;101002.47;;;17.27;100.00
63090;BME280;49174;43.198;27.824;2023-06-10T05:07:08;101006.66;;;17.41;100.00
63090;BME280;49174;43.198;27.824;2023-06-10T05:09:34;101003.94;;;17.53;99.00
63090;BME280;49174;43.198;27.824;2023-06-10T05:12:00;100996.84;;;17.64;98.39
63090;BME280;49174;43.198;27.824;2023-06-10T05:14:28;100995.16;;;17.75;98.66
63090;BME280;49174;43.198;27.824;2023-06-10T05:16:53;100998.97;;;17.85;97.86
63090;BME280;49174;43.198;27.824;2023-06-10T05:19:19;100996.94;;;17.93;97.26
63090;BME280;49174;43.198;27.824;2023-06-10T05:21:45;101003.13;;;18.00;96.13
63090;BME280;49174;43.198;27.824;2023-06-10T05:24:11;100991.59;;;18.09;96.28
63090;BME280;49174;43.198;27.824;2023-06-10T05:26:36;100989.63;;;18.22;92.21
63090;BME280;49174;43.198;27.824;2023-06-10T05:29:07;100990.47;;;18.34;93.59
63090;BME280;49174;43.198;27.824;2023-06-10T05:31:33;100987.94;;;18.44;92.73
63090;BME280;49174;43.198;27.824;2023-06-10T05:33:58;100992.53;;;18.56;91.67
63090;BME280;49174;43.198;27.824;2023-06-10T05:36:24;100982.34;;;18.68;90.02
63090;BME280;49174;43.198;27.824;2023-06-10T05:38:52;100980.41;;;18.80;88.41
63090;BME280;49174;43.198;27.824;2023-06-10T05:41:18;100981.44;;;18.91;88.19
63090;BME280;49174;43.198;27.824;2023-06-10T05:43:44;100977.31;;;19.05;86.94
63090;BME280;49174;43.198;27.824;2023-06-10T05:46:09;100984.13;;;19.19;86.17
63090;BME280;49174;43.198;27.824;2023-06-10T05:48:35;100978.81;;;19.30;86.31
63090;BME280;49174;43.198;27.824;2023-06-10T05:51:00;100979.81;;;19.40;85.08
63090;BME280;49174;43.198;27.824;2023-06-10T05:53:26;100976.47;;;19.55;85.64
63090;BME280;49174;43.198;27.824;2023-06-10T05:55:51;100984.94;;;19.71;84.03
63090;BME280;49174;43.198;27.824;2023-06-10T05:58:20;100984.63;;;19.89;83.67
63090;BME280;49174;43.198;27.824;2023-06-10T06:00:45;100971.97;;;20.05;82.13
63090;BME280;49174;43.198;27.824;2023-06-10T06:03:11;100979.06;;;20.23;82.66
63090;BME280;49174;43.198;27.824;2023-06-10T06:05:36;100970.44;;;20.36;79.99
63090;BME280;49174;43.198;27.824;2023-06-10T06:08:04;100976.72;;;20.53;78.67
63090;BME280;49174;43.198;27.824;2023-06-10T06:10:30;100976.34;;;20.72;77.23
63090;BME280;49174;43.198;27.824;2023-06-10T06:12:56;100964.44;;;20.88;75.34
63090;BME280;49174;43.198;27.824;2023-06-10T06:15:22;100958.56;;;21.07;73.66
63090;BME280;49174;43.198;27.824;2023-06-10T06:17:47;100962.34;;;21.33;72.66
63090;BME280;49174;43.198;27.824;2023-06-10T06:20:13;100964.47;;;21.58;73.54
63090;BME280;49174;43.198;27.824;2023-06-10T06:22:38;100961.81;;;21.78;70.36
63090;BME280;49174;43.198;27.824;2023-06-10T06:25:05;100951.47;;;21.91;70.08
63090;BME280;49174;43.198;27.824;2023-06-10T06:27:31;100958.09;;;22.00;69.40
63090;BME280;49174;43.198;27.824;2023-06-10T06:29:56;100956.47;;;22.04;68.48
63090;BME280;49174;43.198;27.824;2023-06-10T06:32:22;100961.16;;;22.08;69.75
63090;BME280;49174;43.198;27.824;2023-06-10T06:34:50;100955.13;;;22.17;68.09
63090;BME280;49174;43.198;27.824;2023-06-10T06:37:21;100949.44;;;22.34;67.74
63090;BME280;49174;43.198;27.824;2023-06-10T06:39:59;100957.75;;;22.59;65.64
63090;BME280;49174;43.198;27.824;2023-06-10T06:42:29;100947.34;;;22.87;67.13
63090;BME280;49174;43.198;27.824;2023-06-10T06:44:55;100947.38;;;23.17;65.97
63090;BME280;49174;43.198;27.824;2023-06-10T06:47:20;100946.81;;;23.41;64.58
63090;BME280;49174;43.198;27.824;2023-06-10T06:49:46;100942.38;;;23.60;64.92
63090;BME280;49174;43.198;27.824;2023-06-10T06:52:13;100946.78;;;23.77;62.59
63090;BME280;49174;43.198;27.824;2023-06-10T06:54:38;100944.53;;;23.84;60.03
63090;BME280;49174;43.198;27.824;2023-06-10T06:57:04;100938.44;;;23.87;59.26
63090;BME280;49174;43.198;27.824;2023-06-10T06:59:30;100938.16;;;23.99;61.03
63090;BME280;49174;43.198;27.824;2023-06-10T07:01:56;100938.53;;;24.26;60.68
63090;BME280;49174;43.198;27.824;2023-06-10T07:04:21;100928.25;;;24.52;61.23
63090;BME280;49174;43.198;27.824;2023-06-10T07:06:48;100934.09;;;24.85;57.34
63090;BME280;49174;43.198;27.824;2023-06-10T07:09:13;100920.06;;;25.16;56.11
63090;BME280;49174;43.198;27.824;2023-06-10T07:11:39;100919.25;;;25.39;56.21
63090;BME280;49174;43.198;27.824;2023-06-10T07:14:05;100910.06;;;25.49;55.32
63090;BME280;49174;43.198;27.824;2023-06-10T07:16:30;100911.28;;;25.62;57.41
63090;BME280;49174;43.198;27.824;2023-06-10T07:18:56;100905.31;;;25.74;56.69
63090;BME280;49174;43.198;27.824;2023-06-10T07:21:22;100911.69;;;25.74;56.46
63090;BME280;49174;43.198;27.824;2023-06-10T07:23:49;100905.03;;;25.75;52.63
63090;BME280;49174;43.198;27.824;2023-06-10T07:26:17;100910.25;;;25.77;51.24
63090;BME280;49174;43.198;27.824;2023-06-10T07:28:43;100908.94;;;25.74;52.42
63090;BME280;49174;43.198;27.824;2023-06-10T07:31:09;100917.78;;;25.71;53.74
63090;BME280;49174;43.198;27.824;2023-06-10T07:33:34;100918.09;;;25.70;50.19
63090;BME280;49174;43.198;27.824;2023-06-10T07:36:00;100915.50;;;25.78;52.42
63090;BME280;49174;43.198;27.824;2023-06-10T07:38:26;100912.22;;;26.00;51.74
63090;BME280;49174;43.198;27.824;2023-06-10T07:40:52;100911.13;;;26.20;49.00
63090;BME280;49174;43.198;27.824;2023-06-10T07:43:18;100908.59;;;26.43;48.58
63090;BME280;49174;43.198;27.824;2023-06-10T07:45:45;100908.75;;;26.70;50.21
63090;BME280;49174;43.198;27.824;2023-06-10T07:48:11;100911.09;;;26.96;47.57
63090;BME280;49174;43.198;27.824;2023-06-10T07:50:36;100911.84;;;27.15;48.62
63090;BME280;49174;43.198;27.824;2023-06-10T07:53:02;100908.13;;;27.25;47.17
63090;BME280;49174;43.198;27.824;2023-06-10T07:55:28;100912.13;;;27.47;49.58
63090;BME280;49174;43.198;27.824;2023-06-10T07:57:54;100905.50;;;27.61;49.06
63090;BME280;49174;43.198;27.824;2023-06-10T08:00:20;100905.28;;;27.85;46.78
63090;BME280;49174;43.198;27.824;2023-06-10T08:02:46;100906.84;;;28.05;48.08
63090;BME280;49174;43.198;27.824;2023-06-10T08:05:12;100903.81;;;28.16;48.54
63090;BME280;49174;43.198;27.824;2023-06-10T08:07:41;100892.22;;;28.14;48.43
63090;BME280;49174;43.198;27.824;2023-06-10T08:10:07;100894.69;;;28.15;49.40
63090;BME280;49174;43.198;27.824;2023-06-10T08:12:34;100890.34;;;28.23;49.85
63090;BME280;49174;43.198;27.824;2023-06-10T08:15:00;100890.41;;;28.45;49.91
63090;BME280;49174;43.198;27.824;2023-06-10T08:17:26;100891.81;;;28.79;48.33
63090;BME280;49174;43.198;27.824;2023-06-10T08:19:51;100896.31;;;29.11;43.50
63090;BME280;49174;43.198;27.824;2023-06-10T08:22:17;100889.94;;;29.42;46.11
63090;BME280;49174;43.198;27.824;2023-06-10T08:24:43;100885.50;;;29.50;44.96
63090;BME280;49174;43.198;27.824;2023-06-10T08:27:08;100884.94;;;29.61;45.56
63090;BME280;49174;43.198;27.824;2023-06-10T08:29:34;100885.16;;;29.74;45.21
63090;BME280;49174;43.198;27.824;2023-06-10T08:32:00;100887.94;;;29.82;44.50
63090;BME280;49174;43.198;27.824;2023-06-10T08:34:25;100879.16;;;29.98;41.04
63090;BME280;49174;43.198;27.824;2023-06-10T08:36:51;100879.19;;;30.15;42.11
63090;BME280;49174;43.198;27.824;2023-06-10T08:39:21;100874.63;;;30.37;42.18
63090;BME280;49174;43.198;27.824;2023-06-10T08:44:35;100876.25;;;30.55;40.42
63090;BME280;49174;43.198;27.824;2023-06-10T08:47:10;100877.88;;;30.56;39.73
63090;BME280;49174;43.198;27.824;2023-06-10T08:49:43;100880.50;;;30.53;41.45
63090;BME280;49174;43.198;27.824;2023-06-10T08:52:13;100870.00;;;30.67;40.40
63090;BME280;49174;43.198;27.824;2023-06-10T08:54:43;100867.88;;;30.72;41.42
63090;BME280;49174;43.198;27.824;2023-06-10T08:57:10;100863.47;;;30.80;39.26
63090;BME280;49174;43.198;27.824;2023-06-10T08:59:36;100865.44;;;30.88;37.82
63090;BME280;49174;43.198;27.824;2023-06-10T09:02:04;100861.94;;;31.00;37.32
63090;BME280;49174;43.198;27.824;2023-06-10T09:04:30;100853.72;;;31.12;34.66
63090;BME280;49174;43.198;27.824;2023-06-10T09:06:56;100854.81;;;31.29;35.87
63090;BME280;49174;43.198;27.824;2023-06-10T09:09:23;100846.25;;;31.43;37.13
63090;BME280;49174;43.198;27.824;2023-06-10T09:11:48;100845.38;;;31.51;33.92
63090;BME280;49174;43.198;27.824;2023-06-10T09:14:14;100848.78;;;31.56;34.75
63090;BME280;49174;43.198;27.824;2023-06-10T09:16:42;100849.56;;;31.66;34.01
63090;BME280;49174;43.198;27.824;2023-06-10T09:19:08;100847.41;;;31.71;35.06
63090;BME280;49174;43.198;27.824;2023-06-10T09:21:36;100856.34;;;31.86;33.23
63090;BME280;49174;43.198;27.824;2023-06-10T09:24:02;100853.88;;;31.84;32.45
63090;BME280;49174;43.198;27.824;2023-06-10T09:26:30;100850.88;;;31.89;33.44
63090;BME280;49174;43.198;27.824;2023-06-10T09:29:04;100840.06;;;31.96;33.91
63090;BME280;49174;43.198;27.824;2023-06-10T09:31:31;100838.38;;;32.04;33.39
63090;BME280;49174;43.198;27.824;2023-06-10T09:36:36;100847.53;;;32.25;33.10
63090;BME280;49174;43.198;27.824;2023-06-10T09:39:02;100845.75;;;32.42;32.63
63090;BME280;49174;43.198;27.824;2023-06-10T09:41:35;100833.38;;;32.52;30.81
63090;BME280;49174;43.198;27.824;2023-06-10T09:44:01;100832.81;;;32.58;29.88
63090;BME280;49174;43.198;27.824;2023-06-10T09:46:31;100829.00;;;32.63;30.44
63090;BME280;49174;43.198;27.824;2023-06-10T09:48:58;100845.09;;;32.78;32.94
63090;BME280;49174;43.198;27.824;2023-06-10T09:51:24;100832.03;;;32.70;32.76
63090;BME280;49174;43.198;27.824;2023-06-10T09:53:53;100840.97;;;32.42;33.08
63090;BME280;49174;43.198;27.824;2023-06-10T09:56:19;100833.28;;;32.39;33.04
63090;BME280;49174;43.198;27.824;2023-06-10T09:58:46;100834.69;;;32.45;28.94
63090;BME280;49174;43.198;27.824;2023-06-10T10:01:13;100834.53;;;32.51;31.79
63090;BME280;49174;43.198;27.824;2023-06-10T10:03:46;100835.66;;;32.28;31.50
63090;BME280;49174;43.198;27.824;2023-06-10T10:06:14;100833.91;;;32.03;32.73
63090;BME280;49174;43.198;27.824;2023-06-10T10:08:40;100829.44;;;32.11;31.95
63090;BME280;49174;43.198;27.824;2023-06-10T10:11:05;100830.09;;;32.28;32.58
63090;BME280;49174;43.198;27.824;2023-06-10T10:13:33;100817.06;;;32.54;31.31
63090;BME280;49174;43.198;27.824;2023-06-10T10:16:04;100826.91;;;32.72;30.65
63090;BME280;49174;43.198;27.824;2023-06-10T10:18:34;100818.81;;;32.91;27.74
63090;BME280;49174;43.198;27.824;2023-06-10T10:21:06;100816.91;;;33.04;28.15
63090;BME280;49174;43.198;27.824;2023-06-10T10:23:55;100817.41;;;32.98;28.94
63090;BME280;49174;43.198;27.824;2023-06-10T10:26:25;100799.53;;;33.11;28.90
63090;BME280;49174;43.198;27.824;2023-06-10T10:29:07;100819.91;;;33.24;30.48
63090;BME280;49174;43.198;27.824;2023-06-10T10:31:35;100812.69;;;33.23;28.47
63090;BME280;49174;43.198;27.824;2023-06-10T10:34:06;100814.31;;;33.24;27.78
63090;BME280;49174;43.198;27.824;2023-06-10T10:36:32;100808.28;;;33.34;27.59
63090;BME280;49174;43.198;27.824;2023-06-10T10:38:59;100811.06;;;33.34;28.35
63090;BME280;49174;43.198;27.824;2023-06-10T10:41:28;100808.63;;;33.45;33.42
63090;BME280;49174;43.198;27.824;2023-06-10T10:43:55;100800.22;;;33.69;30.36
63090;BME280;49174;43.198;27.824;2023-06-10T10:46:21;100803.25;;;33.52;29.06
63090;BME280;49174;43.198;27.824;2023-06-10T10:48:52;100803.47;;;33.34;28.69
63090;BME280;49174;43.198;27.824;2023-06-10T10:51:18;100807.00;;;33.19;29.67
63090;BME280;49174;43.198;27.824;2023-06-10T10:53:44;100802.31;;;33.23;29.16
63090;BME280;49174;43.198;27.824;2023-06-10T10:56:14;100804.41;;;33.26;29.96
63090;BME280;49174;43.198;27.824;2023-06-10T10:58:40;100796.97;;;33.30;28.12
63090;BME280;49174;43.198;27.824;2023-06-10T11:01:14;100796.72;;;33.48;29.22
63090;BME280;49174;43.198;27.824;2023-06-10T11:03:43;100777.47;;;33.71;30.48
63090;BME280;49174;43.198;27.824;2023-06-10T11:06:16;100785.06;;;33.83;28.34
63090;BME280;49174;43.198;27.824;2023-06-10T11:11:26;100780.88;;;33.40;29.35
63090;BME280;49174;43.198;27.824;2023-06-10T11:16:28;100777.97;;;33.24;31.64
63090;BME280;49174;43.198;27.824;2023-06-10T11:18:54;100782.28;;;33.46;30.63
63090;BME280;49174;43.198;27.824;2023-06-10T11:21:23;100777.53;;;33.58;31.13
63090;BME280;49174;43.198;27.824;2023-06-10T11:23:50;100775.28;;;33.52;30.17
63090;BME280;49174;43.198;27.824;2023-06-10T11:26:16;100776.44;;;33.51;31.41
63090;BME280;49174;43.198;27.824;2023-06-10T11:31:26;100763.31;;;33.92;30.96
63090;BME280;49174;43.198;27.824;2023-06-10T11:34:01;100755.13;;;33.99;29.18
63090;BME280;49174;43.198;27.824;2023-06-10T11:36:29;100747.00;;;33.94;28.82
63090;BME280;49174;43.198;27.824;2023-06-10T11:39:03;100750.03;;;33.89;29.36
63090;BME280;49174;43.198;27.824;2023-06-10T11:41:30;100750.28;;;33.84;27.99
63090;BME280;49174;43.198;27.824;2023-06-10T11:43:59;100751.72;;;33.65;28.97
63090;BME280;49174;43.198;27.824;2023-06-10T11:46:27;100750.50;;;33.38;28.16
63090;BME280;49174;43.198;27.824;2023-06-10T11:48:54;100750.13;;;33.15;29.39
63090;BME280;49174;43.198;27.824;2023-06-10T11:51:21;100739.78;;;33.28;30.42
63090;BME280;49174;43.198;27.824;2023-06-10T11:53:50;100745.56;;;33.47;30.75
63090;BME280;49174;43.198;27.824;2023-06-10T11:56:26;100740.44;;;33.37;27.54
63090;BME280;49174;43.198;27.824;2023-06-10T11:58:54;100736.50;;;33.26;28.68
63090;BME280;49174;43.198;27.824;2023-06-10T12:01:22;100739.63;;;33.36;30.12
63090;BME280;49174;43.198;27.824;2023-06-10T12:03:56;100728.25;;;33.29;29.47
63090;BME280;49174;43.198;27.824;2023-06-10T12:06:22;100730.56;;;32.90;29.15
63090;BME280;49174;43.198;27.824;2023-06-10T12:08:48;100724.00;;;32.62;29.27
63090;BME280;49174;43.198;27.824;2023-06-10T12:11:13;100723.28;;;32.53;31.16
63090;BME280;49174;43.198;27.824;2023-06-10T12:13:47;100725.53;;;32.71;30.48
63090;BME280;49174;43.198;27.824;2023-06-10T12:16:16;100727.19;;;32.85;29.92
63090;BME280;49174;43.198;27.824;2023-06-10T12:18:44;100728.09;;;32.77;29.83
63090;BME280;49174;43.198;27.824;2023-06-10T12:21:23;100718.41;;;32.62;29.60
63090;BME280;49174;43.198;27.824;2023-06-10T12:26:40;100708.78;;;32.71;30.45
63090;BME280;49174;43.198;27.824;2023-06-10T12:29:35;100711.94;;;32.82;32.58
63090;BME280;49174;43.198;27.824;2023-06-10T12:32:02;100722.41;;;32.98;29.34
63090;BME280;49174;43.198;27.824;2023-06-10T12:34:32;100705.44;;;33.03;31.25
63090;BME280;49174;43.198;27.824;2023-06-10T12:36:58;100709.72;;;33.12;31.82
63090;BME280;49174;43.198;27.824;2023-06-10T12:39:24;100701.09;;;33.18;31.90
63090;BME280;49174;43.198;27.824;2023-06-10T12:41:51;100699.81;;;33.15;30.17
63090;BME280;49174;43.198;27.824;2023-06-10T12:44:16;100703.44;;;33.15;30.22
63090;BME280;49174;43.198;27.824;2023-06-10T12:46:42;100700.97;;;33.26;30.76
63090;BME280;49174;43.198;27.824;2023-06-10T12:49:08;100694.44;;;33.34;30.25
63090;BME280;49174;43.198;27.824;2023-06-10T12:51:34;100681.59;;;33.46;30.11
63090;BME280;49174;43.198;27.824;2023-06-10T12:54:00;100694.69;;;33.29;28.41
63090;BME280;49174;43.198;27.824;2023-06-10T12:56:26;100695.06;;;33.03;30.91